High gust

Not for real navigation. The accuracy of this data is not assured See disclaimer for more information



ICAO NAME COUNTRY WIND Kt GUST Kt VIS m TEMP/DEW C BARO METAR
RKNF Whang Ryeong Korea, South 39 63 1600 0/-1 29.67 RKNF 172228Z 26039G063KT 1600 BR BKN002 00/M01 A2967 RMK CIG002
LYVR Vrsac Serbia and Montenegro 24 54 9999 16/9 29.88 LYVR 172230Z AUTO 14024G54KT CAVOK 16/09 Q1012
KLVM LIVINGSTON MISSION FIELD MT United States 34 48 16000 9/1 29.94 KLVM 172253Z AUTO 21034G48KT 10SM FEW042 BKN090 OVC110 09/01 A2994 RMK AO2 PK WND 21052/2207 RAB23E4
SAWG Rio Gallegos Aerodrome Argentina 32 47 9999 11/-1 29.29 SAWG 172300Z 25032G47KT 9999 FEW030 11/M01 Q0992
BGBW Narsarsuaq Greenland 29 45 9999 5/-6 28.88 BGBW 172250Z AUTO 05029G45KT 9999NDV FEW055/// BKN075/// 05/M06 Q0978

Show more